CheckWX is a tool to help pilots better visualize weather data.  It is not intended as a substitute for an official pre-flight weather briefing.

18:21:13 UTC

KDIK TAF
Dickinson - Theodore Roosevelt Regional Airport
Dickinson, North Dakota, USA
KDIK 251720Z 2518/2618 27012KT P6SM FEW060 FEW250 FM252100 29014KT P6SM FEW045 SCT250 FM261400 30013G21KT P6SM BKN090

Aug-25@
18:00 UTC

Aug-25 @ 18:00 UTC

Aug-25@
21:00 UTC

Aug-25 @ 21:00 UTC

KDIK 251720Z 2518/2618 27012KT P6SM FEW060 FEW250
Wind
  • 270° at 12 KTS
Cloud Levels
  • Few at 6,000' AGL
  • Few at 25,000' AGL

Aug-25@
21:00 UTC

Aug-25 @ 21:00 UTC

Aug-26@
14:00 UTC

Aug-26 @ 14:00 UTC

FM252100 29014KT P6SM FEW045 SCT250

From

From Standard forecast or significant change

Wind
  • 290° at 14 KTS
Cloud Levels
  • Few at 4,500' AGL
  • Scattered at 25,000' AGL

Aug-26@
14:00 UTC

Aug-26 @ 14:00 UTC

Aug-26@
18:00 UTC

Aug-26 @ 18:00 UTC

FM261400 30013G21KT P6SM BKN090

From

From Standard forecast or significant change

Wind
  • 300° at 13 KTS
  • {Gusting to 21 KTS
Cloud Levels
  • Broken at 9,000' AGL